sensor_id;sensor_type;location;lat;lon;timestamp;pressure;altitude;pressure_sealevel;temperature;humidity
77003;BME280;65939;50.060;14.288;2023-10-08T00:01:38;97429.66;;;17.19;74.07
77003;BME280;65939;50.060;14.288;2023-10-08T00:03:44;97429.44;;;17.20;74.02
77003;BME280;65939;50.060;14.288;2023-10-08T00:05:51;97422.56;;;17.19;74.12
77003;BME280;65939;50.060;14.288;2023-10-08T00:07:52;97429.44;;;17.20;73.46
77003;BME280;65939;50.060;14.288;2023-10-08T00:09:52;97424.16;;;17.20;73.96
77003;BME280;65939;50.060;14.288;2023-10-08T00:11:53;97422.56;;;17.19;74.55
77003;BME280;65939;50.060;14.288;2023-10-08T00:13:55;97426.00;;;17.20;74.21
77003;BME280;65939;50.060;14.288;2023-10-08T00:15:56;97429.66;;;17.19;74.37
77003;BME280;65939;50.060;14.288;2023-10-08T00:17:57;97420.28;;;17.16;74.70
77003;BME280;65939;50.060;14.288;2023-10-08T00:19:59;97429.22;;;17.15;74.09
77003;BME280;65939;50.060;14.288;2023-10-08T00:22:01;97437.31;;;17.14;74.48
77003;BME280;65939;50.060;14.288;2023-10-08T00:24:06;97437.53;;;17.12;74.03
77003;BME280;65939;50.060;14.288;2023-10-08T00:26:10;97438.53;;;17.11;74.03
77003;BME280;65939;50.060;14.288;2023-10-08T00:28:11;97437.09;;;17.09;74.63
77003;BME280;65939;50.060;14.288;2023-10-08T00:30:12;97437.28;;;17.07;74.33
77003;BME280;65939;50.060;14.288;2023-10-08T00:32:18;97428.75;;;17.05;74.79
77003;BME280;65939;50.060;14.288;2023-10-08T00:34:19;97423.66;;;17.04;74.93
77003;BME280;65939;50.060;14.288;2023-10-08T00:36:22;97423.06;;;17.02;75.33
77003;BME280;65939;50.060;14.288;2023-10-08T00:38:24;97423.84;;;17.02;75.07
77003;BME280;65939;50.060;14.288;2023-10-08T00:40:38;97424.66;;;17.03;74.62
77003;BME280;65939;50.060;14.288;2023-10-08T00:42:40;97429.78;;;17.04;74.96
77003;BME280;65939;50.060;14.288;2023-10-08T00:44:46;97420.84;;;17.05;75.40
77003;BME280;65939;50.060;14.288;2023-10-08T00:46:51;97413.53;;;17.07;74.94
77003;BME280;65939;50.060;14.288;2023-10-08T00:48:54;97409.91;;;17.08;75.32
77003;BME280;65939;50.060;14.288;2023-10-08T00:50:56;97410.50;;;17.10;74.75
77003;BME280;65939;50.060;14.288;2023-10-08T00:53:16;97412.97;;;17.12;74.66
77003;BME280;65939;50.060;14.288;2023-10-08T00:55:24;97405.66;;;17.14;74.26
77003;BME280;65939;50.060;14.288;2023-10-08T00:57:33;97393.91;;;17.16;74.59
77003;BME280;65939;50.060;14.288;2023-10-08T00:59:36;97398.16;;;17.17;73.61
77003;BME280;65939;50.060;14.288;2023-10-08T01:01:45;97408.34;;;17.20;74.14
77003;BME280;65939;50.060;14.288;2023-10-08T01:03:51;97398.41;;;17.22;74.50
77003;BME280;65939;50.060;14.288;2023-10-08T01:05:56;97402.28;;;17.27;73.95
77003;BME280;65939;50.060;14.288;2023-10-08T01:07:57;97397.81;;;17.27;73.80
77003;BME280;65939;50.060;14.288;2023-10-08T01:09:59;97403.72;;;17.29;73.73
77003;BME280;65939;50.060;14.288;2023-10-08T01:14:35;97387.69;;;17.31;74.07
77003;BME280;65939;50.060;14.288;2023-10-08T01:16:36;97386.66;;;17.32;74.55
77003;BME280;65939;50.060;14.288;2023-10-08T01:18:37;97390.34;;;17.31;73.92
77003;BME280;65939;50.060;14.288;2023-10-08T01:20:43;97380.78;;;17.30;74.23
77003;BME280;65939;50.060;14.288;2023-10-08T01:22:52;97382.81;;;17.28;74.03
77003;BME280;65939;50.060;14.288;2023-10-08T01:24:53;97384.63;;;17.27;73.71
77003;BME280;65939;50.060;14.288;2023-10-08T01:26:54;97398.03;;;17.26;74.67
77003;BME280;65939;50.060;14.288;2023-10-08T01:28:54;97398.41;;;17.22;74.20
77003;BME280;65939;50.060;14.288;2023-10-08T01:30:57;97399.63;;;17.20;74.08
77003;BME280;65939;50.060;14.288;2023-10-08T01:33:00;97396.34;;;17.18;74.48
77003;BME280;65939;50.060;14.288;2023-10-08T01:35:03;97393.09;;;17.16;74.33
77003;BME280;65939;50.060;14.288;2023-10-08T01:37:16;97387.00;;;17.15;74.74
77003;BME280;65939;50.060;14.288;2023-10-08T01:39:17;97393.28;;;17.14;74.87
77003;BME280;65939;50.060;14.288;2023-10-08T01:41:18;97387.41;;;17.12;74.76
77003;BME280;65939;50.060;14.288;2023-10-08T01:43:19;97390.22;;;17.11;75.40
77003;BME280;65939;50.060;14.288;2023-10-08T01:45:21;97388.41;;;17.11;75.36
77003;BME280;65939;50.060;14.288;2023-10-08T01:47:25;97392.69;;;17.12;74.78
77003;BME280;65939;50.060;14.288;2023-10-08T01:49:25;97377.66;;;17.13;75.22
77003;BME280;65939;50.060;14.288;2023-10-08T01:51:32;97383.94;;;17.12;75.56
77003;BME280;65939;50.060;14.288;2023-10-08T01:53:39;97381.31;;;17.12;74.90
77003;BME280;65939;50.060;14.288;2023-10-08T01:55:39;97382.13;;;17.12;75.23
77003;BME280;65939;50.060;14.288;2023-10-08T01:57:50;97381.09;;;17.13;74.98
77003;BME280;65939;50.060;14.288;2023-10-08T01:59:53;97381.09;;;17.13;74.59
77003;BME280;65939;50.060;14.288;2023-10-08T02:01:54;97377.44;;;17.14;75.32
77003;BME280;65939;50.060;14.288;2023-10-08T02:03:57;97373.00;;;17.15;75.00
77003;BME280;65939;50.060;14.288;2023-10-08T02:05:58;97378.28;;;17.15;75.38
77003;BME280;65939;50.060;14.288;2023-10-08T02:07:59;97381.53;;;17.17;75.34
77003;BME280;65939;50.060;14.288;2023-10-08T02:10:01;97378.06;;;17.16;75.03
77003;BME280;65939;50.060;14.288;2023-10-08T02:12:02;97382.34;;;17.17;75.40
77003;BME280;65939;50.060;14.288;2023-10-08T02:14:05;97385.78;;;17.18;75.53
77003;BME280;65939;50.060;14.288;2023-10-08T02:16:07;97386.63;;;17.18;75.59
77003;BME280;65939;50.060;14.288;2023-10-08T02:18:08;97384.00;;;17.18;75.01
77003;BME280;65939;50.060;14.288;2023-10-08T02:20:09;97385.78;;;17.18;75.14
77003;BME280;65939;50.060;14.288;2023-10-08T02:22:12;97371.19;;;17.15;75.67
77003;BME280;65939;50.060;14.288;2023-10-08T02:24:13;97375.81;;;17.13;75.41
77003;BME280;65939;50.060;14.288;2023-10-08T02:26:14;97385.56;;;17.13;75.92
77003;BME280;65939;50.060;14.288;2023-10-08T02:28:16;97384.13;;;17.10;75.48
77003;BME280;65939;50.060;14.288;2023-10-08T02:30:19;97377.22;;;17.09;75.95
77003;BME280;65939;50.060;14.288;2023-10-08T02:32:19;97380.88;;;17.08;76.08
77003;BME280;65939;50.060;14.288;2023-10-08T02:34:22;97371.31;;;17.07;76.48
77003;BME280;65939;50.060;14.288;2023-10-08T02:36:23;97376.00;;;17.05;75.90
77003;BME280;65939;50.060;14.288;2023-10-08T02:38:24;97385.72;;;17.05;76.67
77003;BME280;65939;50.060;14.288;2023-10-08T02:40:25;97390.38;;;17.03;76.63
77003;BME280;65939;50.060;14.288;2023-10-08T02:42:27;97387.13;;;17.01;76.60
77003;BME280;65939;50.060;14.288;2023-10-08T02:44:27;97387.94;;;17.01;76.80
77003;BME280;65939;50.060;14.288;2023-10-08T02:46:28;97381.66;;;17.02;76.90
77003;BME280;65939;50.060;14.288;2023-10-08T02:48:31;97379.22;;;17.01;77.20
77003;BME280;65939;50.060;14.288;2023-10-08T02:50:31;97371.09;;;17.02;76.98
77003;BME280;65939;50.060;14.288;2023-10-08T02:52:33;97353.28;;;17.04;76.72
77003;BME280;65939;50.060;14.288;2023-10-08T02:54:34;97343.31;;;17.06;76.50
77003;BME280;65939;50.060;14.288;2023-10-08T02:56:36;97357.31;;;17.07;76.46
77003;BME280;65939;50.060;14.288;2023-10-08T02:58:39;97353.28;;;17.04;76.65
77003;BME280;65939;50.060;14.288;2023-10-08T03:00:45;97357.91;;;17.02;76.64
77003;BME280;65939;50.060;14.288;2023-10-08T03:02:49;97356.47;;;16.99;77.15
77003;BME280;65939;50.060;14.288;2023-10-08T03:04:51;97364.38;;;16.99;76.67
77003;BME280;65939;50.060;14.288;2023-10-08T03:06:53;97373.75;;;17.02;76.32
77003;BME280;65939;50.060;14.288;2023-10-08T03:08:53;97360.56;;;17.02;76.93
77003;BME280;65939;50.060;14.288;2023-10-08T03:10:54;97376.16;;;17.04;76.55
77003;BME280;65939;50.060;14.288;2023-10-08T03:13:04;97376.00;;;17.05;77.01
77003;BME280;65939;50.060;14.288;2023-10-08T03:15:06;97382.72;;;17.08;76.44
77003;BME280;65939;50.060;14.288;2023-10-08T03:17:25;97386.16;;;17.08;76.96
77003;BME280;65939;50.060;14.288;2023-10-08T03:19:26;97393.06;;;17.09;76.50
77003;BME280;65939;50.060;14.288;2023-10-08T03:21:27;97407.06;;;17.10;76.80
77003;BME280;65939;50.060;14.288;2023-10-08T03:23:44;97407.69;;;17.12;76.41
77003;BME280;65939;50.060;14.288;2023-10-08T03:25:51;97405.88;;;17.12;76.99
77003;BME280;65939;50.060;14.288;2023-10-08T03:27:56;97399.41;;;17.15;76.62
77003;BME280;65939;50.060;14.288;2023-10-08T03:29:59;97403.66;;;17.16;76.59
77003;BME280;65939;50.060;14.288;2023-10-08T03:32:00;97397.56;;;17.15;76.88
77003;BME280;65939;50.060;14.288;2023-10-08T03:34:06;97394.13;;;17.15;76.98
77003;BME280;65939;50.060;14.288;2023-10-08T03:36:08;97402.84;;;17.15;76.81
77003;BME280;65939;50.060;14.288;2023-10-08T03:38:21;97400.00;;;17.17;76.47
77003;BME280;65939;50.060;14.288;2023-10-08T03:40:28;97394.53;;;17.18;77.00
77003;BME280;65939;50.060;14.288;2023-10-08T03:42:44;97394.53;;;17.18;76.76
77003;BME280;65939;50.060;14.288;2023-10-08T03:44:52;97399.63;;;17.20;77.36
77003;BME280;65939;50.060;14.288;2023-10-08T03:46:54;97398.59;;;17.21;77.43
77003;BME280;65939;50.060;14.288;2023-10-08T03:48:57;97398.22;;;17.24;78.10
77003;BME280;65939;50.060;14.288;2023-10-08T03:51:05;97393.34;;;17.28;77.74
77003;BME280;65939;50.060;14.288;2023-10-08T03:53:12;97390.34;;;17.31;77.76
77003;BME280;65939;50.060;14.288;2023-10-08T03:55:13;97395.22;;;17.34;77.99
77003;BME280;65939;50.060;14.288;2023-10-08T03:57:22;97395.81;;;17.36;77.77
77003;BME280;65939;50.060;14.288;2023-10-08T03:59:42;97399.72;;;17.40;77.37
77003;BME280;65939;50.060;14.288;2023-10-08T04:01:43;97395.06;;;17.42;77.72
77003;BME280;65939;50.060;14.288;2023-10-08T04:03:44;97394.88;;;17.43;78.08
77003;BME280;65939;50.060;14.288;2023-10-08T04:05:50;97388.34;;;17.46;77.96
77003;BME280;65939;50.060;14.288;2023-10-08T04:08:14;97392.44;;;17.48;78.10
77003;BME280;65939;50.060;14.288;2023-10-08T04:10:27;97404.22;;;17.53;77.92
77003;BME280;65939;50.060;14.288;2023-10-08T04:12:43;97411.56;;;17.57;78.19
77003;BME280;65939;50.060;14.288;2023-10-08T04:14:51;97414.63;;;17.61;78.43
77003;BME280;65939;50.060;14.288;2023-10-08T04:16:55;97411.78;;;17.62;78.82
77003;BME280;65939;50.060;14.288;2023-10-08T04:18:56;97415.03;;;17.64;78.64
77003;BME280;65939;50.060;14.288;2023-10-08T04:20:57;97411.19;;;17.67;77.96
77003;BME280;65939;50.060;14.288;2023-10-08T04:23:16;97405.53;;;17.70;77.92
77003;BME280;65939;50.060;14.288;2023-10-08T04:25:23;97401.69;;;17.73;78.00
77003;BME280;65939;50.060;14.288;2023-10-08T04:27:23;97411.22;;;17.74;77.91
77003;BME280;65939;50.060;14.288;2023-10-08T04:29:29;97406.59;;;17.76;77.87
77003;BME280;65939;50.060;14.288;2023-10-08T04:31:33;97396.03;;;17.76;77.78
77003;BME280;65939;50.060;14.288;2023-10-08T04:33:44;97393.00;;;17.79;78.22
77003;BME280;65939;50.060;14.288;2023-10-08T04:35:47;97402.72;;;17.78;77.86
77003;BME280;65939;50.060;14.288;2023-10-08T04:38:05;97399.91;;;17.80;77.77
77003;BME280;65939;50.060;14.288;2023-10-08T04:40:09;97404.16;;;17.81;78.05
77003;BME280;65939;50.060;14.288;2023-10-08T04:42:16;97419.41;;;17.79;77.67
77003;BME280;65939;50.060;14.288;2023-10-08T04:44:25;97415.13;;;17.78;78.00
77003;BME280;65939;50.060;14.288;2023-10-08T04:46:26;97408.22;;;17.77;77.78
77003;BME280;65939;50.060;14.288;2023-10-08T04:48:50;97403.97;;;17.76;78.07
77003;BME280;65939;50.060;14.288;2023-10-08T04:50:52;97419.81;;;17.76;78.67
77003;BME280;65939;50.060;14.288;2023-10-08T04:52:58;97429.72;;;17.74;78.86
77003;BME280;65939;50.060;14.288;2023-10-08T04:54:59;97451.84;;;17.73;78.40
77003;BME280;65939;50.060;14.288;2023-10-08T04:57:12;97495.69;;;17.67;78.76
77003;BME280;65939;50.060;14.288;2023-10-08T04:59:16;97504.44;;;17.33;78.67
77003;BME280;65939;50.060;14.288;2023-10-08T05:01:22;97500.09;;;16.54;81.22
77003;BME280;65939;50.060;14.288;2023-10-08T05:03:30;97508.19;;;15.95;84.03
77003;BME280;65939;50.060;14.288;2023-10-08T05:05:44;97518.44;;;15.45;86.44
77003;BME280;65939;50.060;14.288;2023-10-08T05:08:05;97481.75;;;15.14;87.75
77003;BME280;65939;50.060;14.288;2023-10-08T05:10:22;97488.25;;;14.89;89.85
77003;BME280;65939;50.060;14.288;2023-10-08T05:12:25;97492.81;;;14.72;91.80
77003;BME280;65939;50.060;14.288;2023-10-08T05:14:35;97512.31;;;14.54;92.92
77003;BME280;65939;50.060;14.288;2023-10-08T05:16:39;97501.59;;;14.33;92.34
77003;BME280;65939;50.060;14.288;2023-10-08T05:19:00;97521.91;;;14.08;92.40
77003;BME280;65939;50.060;14.288;2023-10-08T05:21:25;97540.88;;;13.87;93.26
77003;BME280;65939;50.060;14.288;2023-10-08T05:23:41;97546.03;;;13.72;93.55
77003;BME280;65939;50.060;14.288;2023-10-08T05:25:56;97561.97;;;13.62;93.74
77003;BME280;65939;50.060;14.288;2023-10-08T05:28:09;97559.19;;;13.56;94.36
77003;BME280;65939;50.060;14.288;2023-10-08T05:30:10;97563.97;;;13.52;95.41
77003;BME280;65939;50.060;14.288;2023-10-08T05:32:15;97578.84;;;13.52;95.57
77003;BME280;65939;50.060;14.288;2023-10-08T05:34:39;97573.13;;;13.48;95.27
77003;BME280;65939;50.060;14.288;2023-10-08T05:36:51;97573.31;;;13.47;96.08
77003;BME280;65939;50.060;14.288;2023-10-08T05:39:04;97568.53;;;13.50;95.90
77003;BME280;65939;50.060;14.288;2023-10-08T05:41:30;97567.22;;;13.54;95.62
77003;BME280;65939;50.060;14.288;2023-10-08T05:43:51;97586.41;;;13.55;95.82
77003;BME280;65939;50.060;14.288;2023-10-08T05:46:14;97599.38;;;13.56;95.63
77003;BME280;65939;50.060;14.288;2023-10-08T05:48:23;97612.16;;;13.51;95.56
77003;BME280;65939;50.060;14.288;2023-10-08T05:50:28;97607.91;;;13.50;95.48
77003;BME280;65939;50.060;14.288;2023-10-08T05:52:28;97613.31;;;13.40;94.81
77003;BME280;65939;50.060;14.288;2023-10-08T05:54:43;97624.13;;;13.29;94.30
77003;BME280;65939;50.060;14.288;2023-10-08T05:57:09;97644.28;;;13.21;93.96
77003;BME280;65939;50.060;14.288;2023-10-08T05:59:10;97643.28;;;13.13;94.03
77003;BME280;65939;50.060;14.288;2023-10-08T06:01:18;97657.22;;;13.06;94.16
77003;BME280;65939;50.060;14.288;2023-10-08T06:03:39;97655.38;;;12.98;93.81
77003;BME280;65939;50.060;14.288;2023-10-08T06:06:01;97682.56;;;12.89;93.58
77003;BME280;65939;50.060;14.288;2023-10-08T06:08:23;97686.94;;;12.80;93.65
77003;BME280;65939;50.060;14.288;2023-10-08T06:10:43;97687.25;;;12.69;93.90
77003;BME280;65939;50.060;14.288;2023-10-08T06:12:46;97696.06;;;12.60;94.72
77003;BME280;65939;50.060;14.288;2023-10-08T06:15:00;97712.38;;;12.45;94.13
77003;BME280;65939;50.060;14.288;2023-10-08T06:17:11;97713.41;;;12.27;95.63
77003;BME280;65939;50.060;14.288;2023-10-08T06:19:24;97717.13;;;12.16;97.14
77003;BME280;65939;50.060;14.288;2023-10-08T06:21:26;97718.88;;;12.07;98.13
77003;BME280;65939;50.060;14.288;2023-10-08T06:23:28;97724.22;;;11.97;99.15
77003;BME280;65939;50.060;14.288;2023-10-08T06:25:29;97737.72;;;11.85;99.45
77003;BME280;65939;50.060;14.288;2023-10-08T06:27:30;97735.63;;;11.70;99.33
77003;BME280;65939;50.060;14.288;2023-10-08T06:29:32;97749.22;;;11.56;99.58
77003;BME280;65939;50.060;14.288;2023-10-08T06:31:33;97747.84;;;11.34;100.00
77003;BME280;65939;50.060;14.288;2023-10-08T06:33:36;97766.97;;;11.17;100.00
77003;BME280;65939;50.060;14.288;2023-10-08T06:35:37;97765.53;;;11.05;100.00
77003;BME280;65939;50.060;14.288;2023-10-08T06:37:38;97769.00;;;10.95;100.00
77003;BME280;65939;50.060;14.288;2023-10-08T06:39:39;97763.56;;;10.89;100.00
77003;BME280;65939;50.060;14.288;2023-10-08T06:41:48;97768.84;;;10.79;100.00
77003;BME280;65939;50.060;14.288;2023-10-08T06:43:52;97777.41;;;10.71;100.00
77003;BME280;65939;50.060;14.288;2023-10-08T06:46:16;97787.88;;;10.62;100.00
77003;BME280;65939;50.060;14.288;2023-10-08T06:48:21;97788.59;;;10.54;100.00
77003;BME280;65939;50.060;14.288;2023-10-08T06:50:22;97791.94;;;10.46;100.00
77003;BME280;65939;50.060;14.288;2023-10-08T06:52:22;97805.25;;;10.43;100.00
77003;BME280;65939;50.060;14.288;2023-10-08T06:54:23;97812.97;;;10.35;100.00
77003;BME280;65939;50.060;14.288;2023-10-08T06:56:24;97818.47;;;10.32;100.00
77003;BME280;65939;50.060;14.288;2023-10-08T06:58:25;97819.97;;;10.25;100.00
77003;BME280;65939;50.060;14.288;2023-10-08T07:00:26;97837.16;;;10.18;100.00
77003;BME280;65939;50.060;14.288;2023-10-08T07:02:40;97838.91;;;10.17;100.00
77003;BME280;65939;50.060;14.288;2023-10-08T07:04:40;97848.41;;;10.18;100.00
77003;BME280;65939;50.060;14.288;2023-10-08T07:06:44;97863.09;;;10.19;100.00
77003;BME280;65939;50.060;14.288;2023-10-08T07:08:46;97861.47;;;10.18;100.00
77003;BME280;65939;50.060;14.288;2023-10-08T07:10:47;97854.72;;;10.16;100.00
77003;BME280;65939;50.060;14.288;2023-10-08T07:12:48;97855.41;;;10.18;100.00
77003;BME280;65939;50.060;14.288;2023-10-08T07:14:48;97869.41;;;10.17;100.00
77003;BME280;65939;50.060;14.288;2023-10-08T07:16:49;97879.44;;;10.12;100.00
77003;BME280;65939;50.060;14.288;2023-10-08T07:18:52;97887.28;;;10.12;100.00
77003;BME280;65939;50.060;14.288;2023-10-08T07:20:55;97889.47;;;10.06;100.00
77003;BME280;65939;50.060;14.288;2023-10-08T07:23:01;97889.75;;;10.03;100.00
77003;BME280;65939;50.060;14.288;2023-10-08T07:25:03;97894.69;;;10.06;100.00
77003;BME280;65939;50.060;14.288;2023-10-08T07:27:08;97893.75;;;10.07;100.00
77003;BME280;65939;50.060;14.288;2023-10-08T07:29:09;97906.78;;;10.07;100.00
77003;BME280;65939;50.060;14.288;2023-10-08T07:31:18;97905.00;;;10.08;100.00
77003;BME280;65939;50.060;14.288;2023-10-08T07:33:21;97910.88;;;10.10;100.00
77003;BME280;65939;50.060;14.288;2023-10-08T07:35:25;97910.31;;;10.06;100.00
77003;BME280;65939;50.060;14.288;2023-10-08T07:37:30;97914.31;;;10.01;100.00
77003;BME280;65939;50.060;14.288;2023-10-08T07:39:33;97929.81;;;10.02;100.00
77003;BME280;65939;50.060;14.288;2023-10-08T07:41:34;97938.34;;;10.04;100.00
77003;BME280;65939;50.060;14.288;2023-10-08T07:43:34;97935.19;;;10.01;100.00
77003;BME280;65939;50.060;14.288;2023-10-08T07:45:35;97928.72;;;9.95;100.00
77003;BME280;65939;50.060;14.288;2023-10-08T07:47:36;97931.47;;;9.94;100.00
77003;BME280;65939;50.060;14.288;2023-10-08T07:49:37;97942.59;;;9.96;100.00
77003;BME280;65939;50.060;14.288;2023-10-08T07:51:38;97939.84;;;9.97;100.00
77003;BME280;65939;50.060;14.288;2023-10-08T07:53:38;97944.66;;;10.02;100.00
77003;BME280;65939;50.060;14.288;2023-10-08T07:55:41;97939.88;;;10.07;100.00
77003;BME280;65939;50.060;14.288;2023-10-08T07:57:41;97957.03;;;10.10;100.00
77003;BME280;65939;50.060;14.288;2023-10-08T07:59:43;97962.81;;;10.03;100.00
77003;BME280;65939;50.060;14.288;2023-10-08T08:01:58;97958.78;;;9.99;100.00
77003;BME280;65939;50.060;14.288;2023-10-08T08:04:00;97954.28;;;10.01;100.00
77003;BME280;65939;50.060;14.288;2023-10-08T08:06:02;97955.78;;;10.04;100.00
77003;BME280;65939;50.060;14.288;2023-10-08T08:08:03;97961.84;;;10.04;100.00
77003;BME280;65939;50.060;14.288;2023-10-08T08:10:06;97959.50;;;10.01;100.00
77003;BME280;65939;50.060;14.288;2023-10-08T08:12:11;97970.91;;;10.00;100.00
77003;BME280;65939;50.060;14.288;2023-10-08T08:14:13;97968.97;;;9.93;100.00
77003;BME280;65939;50.060;14.288;2023-10-08T08:16:17;97984.72;;;9.91;100.00
77003;BME280;65939;50.060;14.288;2023-10-08T08:18:17;97988.16;;;9.92;100.00
77003;BME280;65939;50.060;14.288;2023-10-08T08:20:22;97986.66;;;9.89;100.00
77003;BME280;65939;50.060;14.288;2023-10-08T08:22:35;97999.41;;;9.82;100.00
77003;BME280;65939;50.060;14.288;2023-10-08T08:24:41;97987.72;;;9.77;100.00
77003;BME280;65939;50.060;14.288;2023-10-08T08:26:45;97995.81;;;9.74;100.00
77003;BME280;65939;50.060;14.288;2023-10-08T08:29:06;97994.97;;;9.73;100.00
77003;BME280;65939;50.060;14.288;2023-10-08T08:31:15;97989.22;;;9.70;100.00
77003;BME280;65939;50.060;14.288;2023-10-08T08:33:16;97996.63;;;9.65;100.00
77003;BME280;65939;50.060;14.288;2023-10-08T08:35:22;97997.28;;;9.67;100.00
77003;BME280;65939;50.060;14.288;2023-10-08T08:37:24;98013.91;;;9.66;100.00
77003;BME280;65939;50.060;14.288;2023-10-08T08:39:29;98012.13;;;9.66;100.00
77003;BME280;65939;50.060;14.288;2023-10-08T08:41:32;98004.19;;;9.68;100.00
77003;BME280;65939;50.060;14.288;2023-10-08T08:43:39;98008.16;;;9.72;100.00
77003;BME280;65939;50.060;14.288;2023-10-08T08:45:45;98007.19;;;9.73;100.00
77003;BME280;65939;50.060;14.288;2023-10-08T08:47:50;98018.72;;;9.70;100.00
77003;BME280;65939;50.060;14.288;2023-10-08T08:49:52;98015.03;;;9.73;100.00
77003;BME280;65939;50.060;14.288;2023-10-08T08:51:56;98019.97;;;9.76;100.00
77003;BME280;65939;50.060;14.288;2023-10-08T08:54:02;98023.56;;;9.75;100.00
77003;BME280;65939;50.060;14.288;2023-10-08T08:56:08;98017.94;;;9.79;100.00
77003;BME280;65939;50.060;14.288;2023-10-08T08:58:13;98026.06;;;9.86;100.00
77003;BME280;65939;50.060;14.288;2023-10-08T09:00:16;98026.34;;;9.93;100.00
77003;BME280;65939;50.060;14.288;2023-10-08T09:02:17;98048.84;;;9.94;100.00
77003;BME280;65939;50.060;14.288;2023-10-08T09:04:28;98054.63;;;9.97;100.00
77003;BME280;65939;50.060;14.288;2023-10-08T09:06:37;98064.38;;;9.95;100.00
77003;BME280;65939;50.060;14.288;2023-10-08T09:08:41;98069.16;;;9.90;100.00
77003;BME280;65939;50.060;14.288;2023-10-08T09:10:43;98072.03;;;9.87;100.00
77003;BME280;65939;50.060;14.288;2023-10-08T09:12:52;98071.31;;;9.85;100.00
77003;BME280;65939;50.060;14.288;2023-10-08T09:15:00;98080.13;;;9.84;100.00
77003;BME280;65939;50.060;14.288;2023-10-08T09:17:05;98077.41;;;9.86;100.00
77003;BME280;65939;50.060;14.288;2023-10-08T09:19:06;98075.59;;;9.86;100.00
77003;BME280;65939;50.060;14.288;2023-10-08T09:21:17;98081.50;;;9.88;100.00
77003;BME280;65939;50.060;14.288;2023-10-08T09:23:23;98072.03;;;9.87;100.00
77003;BME280;65939;50.060;14.288;2023-10-08T09:25:26;98073.94;;;9.85;100.00
77003;BME280;65939;50.060;14.288;2023-10-08T09:27:27;98071.22;;;9.87;100.00
77003;BME280;65939;50.060;14.288;2023-10-08T09:29:28;98065.75;;;9.90;100.00
77003;BME280;65939;50.060;14.288;2023-10-08T09:31:28;98083.72;;;9.93;100.00
77003;BME280;65939;50.060;14.288;2023-10-08T09:33:35;98095.25;;;9.90;100.00
77003;BME280;65939;50.060;14.288;2023-10-08T09:35:36;98093.59;;;9.89;100.00
77003;BME280;65939;50.060;14.288;2023-10-08T09:37:38;98083.44;;;9.86;100.00
77003;BME280;65939;50.060;14.288;2023-10-08T09:39:41;98080.69;;;9.88;100.00
77003;BME280;65939;50.060;14.288;2023-10-08T09:41:43;98084.09;;;9.88;100.00
77003;BME280;65939;50.060;14.288;2023-10-08T09:43:46;98096.22;;;9.89;100.00
77003;BME280;65939;50.060;14.288;2023-10-08T09:45:54;98108.97;;;9.92;100.00
77003;BME280;65939;50.060;14.288;2023-10-08T09:47:58;98106.34;;;9.92;100.00
77003;BME280;65939;50.060;14.288;2023-10-08T09:50:04;98097.44;;;9.95;100.00
77003;BME280;65939;50.060;14.288;2023-10-08T09:52:08;98096.38;;;9.97;100.00
77003;BME280;65939;50.060;14.288;2023-10-08T09:54:17;98097.19;;;9.98;100.00
77003;BME280;65939;50.060;14.288;2023-10-08T09:56:20;98095.97;;;10.02;100.00
77003;BME280;65939;50.060;14.288;2023-10-08T09:58:22;98101.50;;;10.08;100.00
77003;BME280;65939;50.060;14.288;2023-10-08T10:00:26;98107.13;;;10.14;100.00
77003;BME280;65939;50.060;14.288;2023-10-08T10:02:31;98111.00;;;10.19;100.00
77003;BME280;65939;50.060;14.288;2023-10-08T10:04:32;98111.56;;;10.23;100.00
77003;BME280;65939;50.060;14.288;2023-10-08T10:06:33;98110.72;;;10.22;100.00
77003;BME280;65939;50.060;14.288;2023-10-08T10:08:34;98110.72;;;10.22;100.00
77003;BME280;65939;50.060;14.288;2023-10-08T10:10:37;98109.22;;;10.20;100.00
77003;BME280;65939;50.060;14.288;2023-10-08T10:12:39;98098.78;;;10.20;100.00
77003;BME280;65939;50.060;14.288;2023-10-08T10:14:41;98095.06;;;10.22;100.00
77003;BME280;65939;50.060;14.288;2023-10-08T10:16:43;98094.84;;;10.25;100.00
77003;BME280;65939;50.060;14.288;2023-10-08T10:18:48;98093.63;;;10.29;99.53
77003;BME280;65939;50.060;14.288;2023-10-08T10:20:56;98110.81;;;10.32;99.33
77003;BME280;65939;50.060;14.288;2023-10-08T10:23:37;98120.84;;;10.37;99.07
77003;BME280;65939;50.060;14.288;2023-10-08T10:25:40;98126.16;;;10.35;99.21
77003;BME280;65939;50.060;14.288;2023-10-08T10:29:51;98125.66;;;10.41;99.46
77003;BME280;65939;50.060;14.288;2023-10-08T10:31:54;98140.94;;;10.46;99.28
77003;BME280;65939;50.060;14.288;2023-10-08T10:33:57;98144.91;;;10.50;98.51
77003;BME280;65939;50.060;14.288;2023-10-08T10:36:00;98146.16;;;10.55;99.20
77003;BME280;65939;50.060;14.288;2023-10-08T10:38:04;98143.72;;;10.64;99.05
77003;BME280;65939;50.060;14.288;2023-10-08T10:40:07;98151.94;;;10.69;98.56
77003;BME280;65939;50.060;14.288;2023-10-08T10:42:12;98146.03;;;10.67;96.81
77003;BME280;65939;50.060;14.288;2023-10-08T10:44:24;98144.94;;;10.69;97.20
77003;BME280;65939;50.060;14.288;2023-10-08T10:46:25;98145.22;;;10.76;96.92
77003;BME280;65939;50.060;14.288;2023-10-08T10:48:31;98149.38;;;10.78;97.35
77003;BME280;65939;50.060;14.288;2023-10-08T10:50:35;98153.91;;;10.86;96.76
77003;BME280;65939;50.060;14.288;2023-10-08T10:52:40;98150.75;;;10.92;97.15
77003;BME280;65939;50.060;14.288;2023-10-08T10:54:52;98146.91;;;10.96;96.70
77003;BME280;65939;50.060;14.288;2023-10-08T10:57:01;98150.34;;;11.07;96.08
77003;BME280;65939;50.060;14.288;2023-10-08T10:59:18;98153.53;;;11.10;94.82